Phillips, NE (68865)

12:38 PM CDT on August 28, 2015 (GMT -0500)
Barr | | Change Station
CLOSE
Current Station
Personal Weather Station
Location: Grand Island, NE
Elevation: 1864 ft
Nearby Weather Stations

Elev 1864 ft 40.90 °N, 98.34 °W | Updated 2 minutes ago

Overcast
Overcast
80.6 °F
Feels Like 83 °F
N
2.7
Wind Variable Wind from WNW

Today
High -- | Low -- °F
--% Chance of Precip.
Yesterday
High -- | Low -- °F
Precip. -- in
6:55 AM 8:11 PM
Waxing Gibbous, 98% visible
Pressure 29.94 in
Visibility 10.0 miles
Clouds Few 2400 ft
Overcast 3200 ft
Heat Index 83 °F
Dew Point 68 °F
Humidity 65%
Rainfall 0.00 in
Snow Depth Not available.
UV 3 out of 12
Pollen 8.30 out of 12
Air Quality Not available.
Flu Activity Not available.
SPECI KGRI 281735Z 36014KT 10SM FEW024 OVC032 25/18 A2994 RMK AO2 T02500178
Pressure 29.94 in
Visibility 10.0 miles
Clouds Few 2400 ft
Overcast 3200 ft
Heat Index 83 °F
Dew Point 68 °F
Humidity 65%
Rainfall 0.00 in
Snow Depth Not available.
UV 3 out of 12
Pollen 8.30 out of 12
Air Quality Not available.
Flu Activity Not available.
SPECI KGRI 281735Z 36014KT 10SM FEW024 OVC032 25/18 A2994 RMK AO2 T02500178

10-Day Weather Forecast

×

Almanac

Astronomy

Aug. 28, 2015 Rise Set
Actual Time
Civil Twilight
Nautical Twilight
Astronomical Twilight
Moon
Length of Visible Light
Length of Day
Tomorrow will be .
, % of the Moon is Illuminated

Today's Extremes

State Highs State Lows

Community

WunderPhotos

Upload Photos

1,850,439 photos uploaded!

WunderBlogs® & News

Nearby

Air Quality

  Air Quality AQ Index Pollutant
Not available.

Snow Depth

Station Depth Elevation

Earthquake Activity

City Distance Mag. Time & Date
Minimum magnitude displayed is 2.5.

Coastal Water Temperatures

Place Temperature

Stations

Nearby Weather Stations

Station Location Temp. Windchill Dew Point Humidity Wind Precip. Elev Updated Type